createdAt,value
2024-01-24T00:01:00.353Z,100.00
2024-01-24T00:03:28.813Z,100.00
2024-01-24T00:05:56.433Z,100.00
2024-01-24T00:08:24.028Z,100.00
2024-01-24T00:10:51.827Z,100.00
2024-01-24T00:13:19.335Z,100.00
2024-01-24T00:15:47.256Z,99.79
2024-01-24T00:18:15.046Z,100.00
2024-01-24T00:20:42.681Z,99.46
2024-01-24T00:23:10.148Z,99.22
2024-01-24T00:25:37.708Z,99.36
2024-01-24T00:28:06.952Z,99.05
2024-01-24T00:30:34.660Z,98.43
2024-01-24T00:33:03.508Z,98.23
2024-01-24T00:35:31.015Z,98.00
2024-01-24T00:37:58.490Z,97.75
2024-01-24T00:40:26.023Z,97.72
2024-01-24T00:42:53.739Z,97.39
2024-01-24T00:45:22.670Z,97.28
2024-01-24T00:47:50.379Z,97.09
2024-01-24T00:50:18.025Z,96.78
2024-01-24T00:52:45.500Z,96.53
2024-01-24T00:55:13.194Z,96.81
2024-01-24T00:57:40.682Z,96.88
2024-01-24T01:00:09.924Z,96.86
2024-01-24T01:02:38.142Z,96.73
2024-01-24T01:05:06.668Z,96.61
2024-01-24T01:07:34.230Z,96.90
2024-01-24T01:10:01.803Z,97.77
2024-01-24T01:12:29.324Z,98.30
2024-01-24T01:14:56.878Z,98.56
2024-01-24T01:17:24.412Z,98.90
2024-01-24T01:19:51.845Z,99.35
2024-01-24T01:22:21.575Z,99.61
2024-01-24T01:24:49.339Z,100.00
2024-01-24T01:27:16.993Z,100.00
2024-01-24T01:29:44.601Z,100.00
2024-01-24T01:32:12.108Z,100.00
2024-01-24T01:34:39.961Z,100.00
2024-01-24T01:37:08.165Z,100.00
2024-01-24T01:39:35.814Z,100.00
2024-01-24T01:42:04.188Z,100.00
2024-01-24T01:44:37.514Z,100.00
2024-01-24T01:47:05.484Z,100.00
2024-01-24T01:49:33.113Z,100.00
2024-01-24T01:52:00.676Z,100.00
2024-01-24T01:54:29.169Z,100.00
2024-01-24T01:56:56.817Z,100.00
2024-01-24T01:59:26.449Z,100.00
2024-01-24T02:01:57.810Z,100.00
2024-01-24T02:04:27.752Z,100.00
2024-01-24T02:06:56.962Z,100.00
2024-01-24T02:09:25.726Z,100.00
2024-01-24T02:11:53.298Z,100.00
2024-01-24T02:14:20.872Z,100.00
2024-01-24T02:16:48.429Z,100.00
2024-01-24T02:19:16.122Z,100.00
2024-01-24T02:21:43.794Z,100.00
2024-01-24T02:24:12.561Z,100.00
2024-01-24T02:26:40.503Z,100.00
2024-01-24T02:29:08.148Z,100.00
2024-01-24T02:31:35.823Z,100.00
2024-01-24T02:34:04.165Z,100.00
2024-01-24T02:36:31.873Z,100.00
2024-01-24T02:38:59.470Z,100.00
2024-01-24T02:41:27.071Z,100.00
2024-01-24T02:43:54.577Z,100.00
2024-01-24T02:46:22.032Z,100.00
2024-01-24T02:48:49.749Z,100.00
2024-01-24T02:51:29.338Z,100.00
2024-01-24T02:53:57.374Z,100.00
2024-01-24T02:56:24.931Z,100.00
2024-01-24T02:58:52.523Z,100.00
2024-01-24T03:01:20.180Z,100.00
2024-01-24T03:03:48.303Z,100.00
2024-01-24T03:06:16.937Z,100.00
2024-01-24T03:08:49.040Z,100.00
2024-01-24T03:11:17.868Z,100.00
2024-01-24T03:13:45.402Z,100.00
2024-01-24T03:16:13.112Z,100.00
2024-01-24T03:18:41.175Z,100.00
2024-01-24T03:21:17.121Z,100.00
2024-01-24T03:23:45.865Z,100.00
2024-01-24T03:26:17.643Z,100.00
2024-01-24T03:28:45.330Z,100.00
2024-01-24T03:31:13.354Z,100.00
2024-01-24T03:33:40.990Z,100.00
2024-01-24T03:36:08.959Z,100.00
2024-01-24T03:38:36.512Z,100.00
2024-01-24T03:41:04.125Z,100.00
2024-01-24T03:43:31.665Z,100.00
2024-01-24T03:46:01.164Z,100.00
2024-01-24T03:48:28.846Z,100.00
2024-01-24T03:50:56.389Z,100.00
2024-01-24T03:53:23.939Z,100.00
2024-01-24T03:55:52.382Z,100.00
2024-01-24T03:58:20.091Z,100.00
2024-01-24T04:00:47.748Z,100.00
2024-01-24T04:03:15.336Z,100.00
2024-01-24T04:05:42.829Z,100.00
2024-01-24T04:08:10.358Z,100.00
2024-01-24T04:10:37.924Z,100.00
2024-01-24T04:13:05.357Z,100.00
2024-01-24T04:15:33.118Z,100.00
2024-01-24T04:18:01.127Z,100.00
2024-01-24T04:20:29.953Z,100.00
2024-01-24T04:22:57.514Z,99.50
2024-01-24T04:25:25.042Z,98.56
2024-01-24T04:27:52.664Z,97.64
2024-01-24T04:30:20.489Z,96.10
2024-01-24T04:32:48.187Z,95.41
2024-01-24T04:35:15.954Z,94.70
2024-01-24T04:37:43.633Z,94.21
2024-01-24T04:40:13.009Z,93.99
2024-01-24T04:42:40.818Z,93.64
2024-01-24T04:45:11.613Z,92.49
2024-01-24T04:47:43.838Z,92.05
2024-01-24T04:50:12.674Z,91.59
2024-01-24T04:52:40.863Z,90.92
2024-01-24T04:55:13.297Z,90.62
2024-01-24T04:57:42.816Z,89.80
2024-01-24T05:00:13.432Z,89.53
2024-01-24T05:02:41.713Z,89.59
2024-01-24T05:05:09.659Z,89.08
2024-01-24T05:07:37.877Z,88.64
2024-01-24T05:10:06.137Z,88.39
2024-01-24T05:12:33.817Z,87.78
2024-01-24T05:15:01.475Z,86.94
2024-01-24T05:17:29.075Z,87.22
2024-01-24T05:19:56.577Z,86.90
2024-01-24T05:22:24.161Z,86.54
2024-01-24T05:24:52.212Z,86.03
2024-01-24T05:27:19.914Z,85.69
2024-01-24T05:29:48.566Z,85.39
2024-01-24T05:32:16.058Z,85.28
2024-01-24T05:34:43.613Z,84.41
2024-01-24T05:37:11.255Z,83.31
2024-01-24T05:39:38.767Z,83.24
2024-01-24T05:42:06.606Z,83.78
2024-01-24T05:44:34.241Z,82.61
2024-01-24T05:47:02.009Z,83.27
2024-01-24T05:49:29.620Z,83.80
2024-01-24T05:51:57.342Z,84.12
2024-01-24T05:54:24.864Z,83.68
2024-01-24T05:56:52.502Z,83.85
2024-01-24T05:59:20.004Z,83.65
2024-01-24T06:01:48.818Z,83.81
2024-01-24T06:04:16.618Z,84.14
2024-01-24T06:06:44.293Z,85.04
2024-01-24T06:09:11.883Z,85.02
2024-01-24T06:11:39.660Z,85.14
2024-01-24T06:14:07.177Z,85.39
2024-01-24T06:16:34.803Z,85.42
2024-01-24T06:19:02.474Z,85.55
2024-01-24T06:21:30.169Z,84.79
2024-01-24T06:23:57.737Z,85.30
2024-01-24T06:26:25.287Z,85.27
2024-01-24T06:28:53.048Z,85.45
2024-01-24T06:31:20.653Z,84.89
2024-01-24T06:33:48.350Z,83.94
2024-01-24T06:36:18.806Z,83.85
2024-01-24T06:38:46.470Z,82.44
2024-01-24T06:41:14.355Z,81.35
2024-01-24T06:43:43.591Z,80.41
2024-01-24T06:46:12.557Z,79.47
2024-01-24T06:48:40.427Z,79.52
2024-01-24T06:51:13.210Z,79.40
2024-01-24T06:53:40.810Z,77.64
2024-01-24T06:56:09.762Z,77.36
2024-01-24T06:58:41.880Z,77.32
2024-01-24T07:01:09.469Z,78.06
2024-01-24T07:03:37.536Z,78.54
2024-01-24T07:06:06.873Z,79.11
2024-01-24T07:08:35.076Z,78.92
2024-01-24T07:11:03.492Z,79.18
2024-01-24T07:13:31.036Z,79.14
2024-01-24T07:15:58.676Z,79.09
2024-01-24T07:18:26.504Z,79.08
2024-01-24T07:20:54.253Z,78.78
2024-01-24T07:23:21.832Z,78.50
2024-01-24T07:25:49.368Z,78.55
2024-01-24T07:28:16.913Z,78.71
2024-01-24T07:30:44.701Z,79.09
2024-01-24T07:33:12.247Z,78.55
2024-01-24T07:35:41.302Z,78.87
2024-01-24T07:38:08.906Z,78.94
2024-01-24T07:40:38.229Z,78.99
2024-01-24T07:43:06.141Z,78.80
2024-01-24T07:45:33.760Z,78.73
2024-01-24T07:48:01.690Z,78.84
2024-01-24T07:50:29.349Z,78.50
2024-01-24T07:52:56.987Z,78.85
2024-01-24T07:55:32.622Z,78.84
2024-01-24T07:58:09.309Z,79.31
2024-01-24T08:00:37.181Z,78.68
2024-01-24T08:03:05.139Z,78.81
2024-01-24T08:05:33.491Z,78.50
2024-01-24T08:08:02.718Z,78.80
2024-01-24T08:10:30.243Z,78.20
2024-01-24T08:12:58.265Z,77.85
2024-01-24T08:15:26.556Z,78.12
2024-01-24T08:17:54.235Z,78.02
2024-01-24T08:20:23.187Z,77.35
2024-01-24T08:22:50.866Z,77.16
2024-01-24T08:25:18.393Z,77.53
2024-01-24T08:27:46.410Z,76.83
2024-01-24T08:30:14.210Z,76.66
2024-01-24T08:32:43.373Z,76.56
2024-01-24T08:35:11.271Z,76.66
2024-01-24T08:37:38.868Z,76.49
2024-01-24T08:40:09.765Z,76.54
2024-01-24T08:42:38.425Z,76.80
2024-01-24T08:45:06.568Z,76.87
2024-01-24T08:47:34.076Z,76.10
2024-01-24T08:50:02.038Z,76.43
2024-01-24T08:52:29.564Z,76.55
2024-01-24T08:54:57.727Z,76.54
2024-01-24T08:57:26.088Z,76.43
2024-01-24T08:59:54.970Z,76.73
2024-01-24T09:02:30.843Z,76.46
2024-01-24T09:04:59.162Z,76.26
2024-01-24T09:07:26.982Z,76.12
2024-01-24T09:09:54.668Z,76.63
2024-01-24T09:12:23.071Z,76.65
2024-01-24T09:14:50.786Z,76.28
2024-01-24T09:17:18.975Z,76.74
2024-01-24T09:19:48.976Z,76.75
2024-01-24T09:22:17.545Z,77.09
2024-01-24T09:24:45.400Z,76.18
2024-01-24T09:27:13.002Z,75.67
2024-01-24T09:29:40.591Z,76.18
2024-01-24T09:32:08.170Z,76.04
2024-01-24T09:34:35.839Z,76.14
2024-01-24T09:37:04.192Z,75.80
2024-01-24T09:39:31.721Z,75.73
2024-01-24T09:42:02.849Z,75.58
2024-01-24T09:44:34.205Z,75.38
2024-01-24T09:47:03.586Z,75.70
2024-01-24T09:49:33.127Z,75.47
2024-01-24T09:52:03.904Z,75.20
2024-01-24T09:54:33.975Z,75.24
2024-01-24T09:57:03.354Z,74.26
2024-01-24T09:59:30.905Z,74.75
2024-01-24T10:01:59.512Z,74.76
2024-01-24T10:04:27.699Z,74.70
2024-01-24T10:06:55.715Z,74.35
2024-01-24T10:09:23.357Z,73.93
2024-01-24T10:11:50.841Z,74.45
2024-01-24T10:14:19.657Z,74.37
2024-01-24T10:16:47.355Z,73.99
2024-01-24T10:19:15.388Z,73.51
2024-01-24T10:21:43.431Z,73.17
2024-01-24T10:24:12.550Z,73.26
2024-01-24T10:26:40.255Z,73.40
2024-01-24T10:29:08.966Z,72.82
2024-01-24T10:31:36.762Z,73.56
2024-01-24T10:34:05.395Z,73.58
2024-01-24T10:36:43.291Z,73.76
2024-01-24T10:39:15.711Z,73.56
2024-01-24T10:41:46.255Z,73.45
2024-01-24T10:44:18.284Z,72.93
2024-01-24T10:46:46.537Z,72.21
2024-01-24T10:49:15.234Z,72.53
2024-01-24T10:51:45.152Z,72.98
2024-01-24T10:54:17.096Z,71.95
2024-01-24T10:56:48.312Z,71.48
2024-01-24T10:59:17.062Z,71.64
2024-01-24T11:01:46.050Z,71.07
2024-01-24T11:04:23.089Z,71.40
2024-01-24T11:07:03.099Z,71.47
2024-01-24T11:10:10.387Z,71.43
2024-01-24T11:12:38.338Z,71.35
2024-01-24T11:15:07.251Z,71.44
2024-01-24T11:17:34.889Z,71.21
2024-01-24T11:20:11.115Z,70.97
2024-01-24T11:22:38.930Z,71.13
2024-01-24T11:25:11.903Z,71.06
2024-01-24T11:27:42.272Z,71.19
2024-01-24T11:30:12.809Z,70.78
2024-01-24T11:32:47.044Z,70.71
2024-01-24T11:35:34.853Z,70.52
2024-01-24T11:38:29.856Z,70.80
2024-01-24T11:41:24.502Z,70.19
2024-01-24T11:43:52.040Z,70.36
2024-01-24T11:46:23.839Z,70.06
2024-01-24T11:48:51.861Z,70.51
2024-01-24T11:51:19.463Z,70.81
2024-01-24T11:53:47.133Z,70.29
2024-01-24T11:56:15.955Z,69.85
2024-01-24T11:58:43.769Z,69.99
2024-01-24T12:01:12.790Z,69.62
2024-01-24T12:03:51.239Z,69.87
2024-01-24T12:06:20.265Z,69.61
2024-01-24T12:08:50.358Z,69.50
2024-01-24T12:11:19.550Z,69.38
2024-01-24T12:13:48.012Z,68.92
2024-01-24T12:16:15.764Z,69.65
2024-01-24T12:18:43.684Z,70.13
2024-01-24T12:21:12.523Z,69.25
2024-01-24T12:23:41.213Z,69.05
2024-01-24T12:26:09.007Z,69.11
2024-01-24T12:28:36.889Z,68.71
2024-01-24T12:31:06.282Z,68.94
2024-01-24T12:33:36.560Z,69.21
2024-01-24T12:36:06.520Z,68.94
2024-01-24T12:38:37.687Z,69.11
2024-01-24T12:41:05.858Z,68.47
2024-01-24T12:43:33.663Z,68.70
2024-01-24T12:46:08.921Z,67.90
2024-01-24T12:48:38.307Z,68.26
2024-01-24T12:51:07.658Z,68.63
2024-01-24T12:53:36.092Z,68.56
2024-01-24T12:56:04.196Z,68.43
2024-01-24T12:58:31.906Z,68.62
2024-01-24T13:00:59.800Z,68.50
2024-01-24T13:03:29.662Z,69.06
2024-01-24T13:05:58.566Z,69.30
2024-01-24T13:08:26.430Z,68.53
2024-01-24T13:10:56.019Z,68.58
2024-01-24T13:13:23.642Z,68.57
2024-01-24T13:15:54.468Z,68.69
2024-01-24T13:18:22.646Z,68.65
2024-01-24T13:20:50.385Z,68.57
2024-01-24T13:23:17.973Z,69.46
2024-01-24T13:25:45.545Z,68.55
2024-01-24T13:28:14.544Z,68.31
2024-01-24T13:30:42.421Z,68.80
2024-01-24T13:33:11.089Z,68.92
2024-01-24T13:35:38.984Z,69.06
2024-01-24T13:38:06.786Z,68.94
2024-01-24T13:40:34.515Z,68.44
2024-01-24T13:43:02.515Z,68.39
2024-01-24T13:45:30.278Z,68.74
2024-01-24T13:47:57.925Z,68.90
2024-01-24T13:50:25.866Z,69.21
2024-01-24T13:52:53.479Z,68.89
2024-01-24T13:55:21.072Z,69.12
2024-01-24T13:57:49.448Z,69.12
2024-01-24T14:00:17.875Z,68.99
2024-01-24T14:02:46.122Z,68.96
2024-01-24T14:05:13.881Z,69.43
2024-01-24T14:07:44.599Z,69.38
2024-01-24T14:10:13.206Z,69.43
2024-01-24T14:12:41.544Z,69.54
2024-01-24T14:15:19.603Z,69.63
2024-01-24T14:17:56.300Z,69.42
2024-01-24T14:20:23.981Z,69.90
2024-01-24T14:22:52.499Z,69.85
2024-01-24T14:25:20.906Z,70.16
2024-01-24T14:27:48.513Z,70.28
2024-01-24T14:30:16.171Z,70.14
2024-01-24T14:32:43.816Z,70.14
2024-01-24T14:35:17.746Z,70.33
2024-01-24T14:37:45.962Z,70.87
2024-01-24T14:40:16.298Z,70.83
2024-01-24T14:42:44.100Z,70.91
2024-01-24T14:45:11.886Z,71.20
2024-01-24T14:47:39.606Z,71.50
2024-01-24T14:50:11.299Z,71.56
2024-01-24T14:52:39.592Z,71.61
2024-01-24T14:55:08.978Z,71.98
2024-01-24T14:57:36.647Z,72.41
2024-01-24T15:00:11.720Z,72.28
2024-01-24T15:02:39.749Z,72.16
2024-01-24T15:05:09.540Z,71.91
2024-01-24T15:07:38.089Z,72.22
2024-01-24T15:10:08.280Z,72.60
2024-01-24T15:12:37.417Z,72.42
2024-01-24T15:15:06.779Z,72.19
2024-01-24T15:17:35.162Z,72.52
2024-01-24T15:20:04.526Z,72.26
2024-01-24T15:22:34.018Z,72.39
2024-01-24T15:25:04.625Z,72.06
2024-01-24T15:27:33.218Z,72.72
2024-01-24T15:30:00.981Z,72.54
2024-01-24T15:32:29.914Z,72.71
2024-01-24T15:34:57.744Z,72.73
2024-01-24T15:37:25.476Z,73.00
2024-01-24T15:39:53.020Z,73.11
2024-01-24T15:42:22.746Z,73.36
2024-01-24T15:44:50.308Z,73.42
2024-01-24T15:47:19.578Z,73.78
2024-01-24T15:49:47.252Z,73.91
2024-01-24T15:52:17.713Z,73.96
2024-01-24T15:54:46.866Z,73.98
2024-01-24T15:57:14.512Z,73.71
2024-01-24T15:59:42.128Z,73.71
2024-01-24T16:02:09.764Z,74.15
2024-01-24T16:04:38.358Z,73.96
2024-01-24T16:07:06.489Z,74.02
2024-01-24T16:09:34.259Z,73.99
2024-01-24T16:12:02.265Z,74.11
2024-01-24T16:14:30.314Z,74.23
2024-01-24T16:16:58.354Z,74.30
2024-01-24T16:19:26.168Z,74.26
2024-01-24T16:21:54.416Z,74.38
2024-01-24T16:24:22.312Z,74.50
2024-01-24T16:26:49.994Z,74.65
2024-01-24T16:29:18.641Z,74.49
2024-01-24T16:31:46.905Z,74.48
2024-01-24T16:34:14.638Z,74.62
2024-01-24T16:36:42.315Z,74.62
2024-01-24T16:39:10.809Z,74.55
2024-01-24T16:41:38.445Z,74.83
2024-01-24T16:44:05.955Z,74.75
2024-01-24T16:46:33.454Z,75.01
2024-01-24T16:49:00.993Z,74.88
2024-01-24T16:51:28.500Z,74.60
2024-01-24T16:53:56.119Z,74.80
2024-01-24T16:56:24.999Z,74.95
2024-01-24T16:58:52.560Z,75.15
2024-01-24T17:01:20.184Z,75.18
2024-01-24T17:03:50.316Z,75.00
2024-01-24T17:06:18.494Z,74.90
2024-01-24T17:08:45.979Z,75.01
2024-01-24T17:11:15.109Z,75.31
2024-01-24T17:13:42.586Z,75.59
2024-01-24T17:16:10.117Z,75.79
2024-01-24T17:18:39.250Z,75.79
2024-01-24T17:21:07.707Z,75.88
2024-01-24T17:23:35.399Z,76.01
2024-01-24T17:26:03.065Z,76.24
2024-01-24T17:28:30.590Z,75.99
2024-01-24T17:30:58.257Z,76.42
2024-01-24T17:33:26.369Z,76.66
2024-01-24T17:35:54.062Z,76.78
2024-01-24T17:38:21.696Z,77.19
2024-01-24T17:40:49.450Z,77.29
2024-01-24T17:43:17.838Z,77.40
2024-01-24T17:45:45.452Z,77.57
2024-01-24T17:48:13.755Z,77.82
2024-01-24T17:50:41.427Z,77.82
2024-01-24T17:53:11.510Z,78.09
2024-01-24T17:55:39.117Z,78.26
2024-01-24T17:58:06.941Z,78.11
2024-01-24T18:00:34.645Z,78.15
2024-01-24T18:03:02.943Z,78.50
2024-01-24T18:05:30.898Z,78.50
2024-01-24T18:07:58.570Z,78.68
2024-01-24T18:10:26.175Z,78.74
2024-01-24T18:12:57.525Z,79.01
2024-01-24T18:15:25.564Z,78.92
2024-01-24T18:17:55.897Z,79.30
2024-01-24T18:20:23.413Z,79.13
2024-01-24T18:22:50.947Z,79.32
2024-01-24T18:25:18.454Z,79.59
2024-01-24T18:27:45.888Z,79.70
2024-01-24T18:30:16.962Z,79.66
2024-01-24T18:32:46.176Z,79.82
2024-01-24T18:35:14.042Z,80.02
2024-01-24T18:37:42.168Z,79.96
2024-01-24T18:40:12.049Z,80.34
2024-01-24T18:42:42.673Z,80.03
2024-01-24T18:45:14.124Z,80.24
2024-01-24T18:47:41.885Z,80.35
2024-01-24T18:50:09.958Z,80.29
2024-01-24T18:52:37.600Z,80.56
2024-01-24T18:55:06.351Z,80.49
2024-01-24T18:57:34.030Z,80.71
2024-01-24T19:00:01.747Z,80.69
2024-01-24T19:02:29.511Z,80.87
2024-01-24T19:04:58.829Z,81.05
2024-01-24T19:07:26.631Z,81.19
2024-01-24T19:09:54.452Z,81.39
2024-01-24T19:12:22.032Z,81.50
2024-01-24T19:14:49.741Z,81.89
2024-01-24T19:17:17.453Z,81.88
2024-01-24T19:19:45.289Z,82.12
2024-01-24T19:22:13.698Z,82.21
2024-01-24T19:24:41.267Z,82.56
2024-01-24T19:27:08.897Z,82.50
2024-01-24T19:29:37.272Z,82.60
2024-01-24T19:32:05.392Z,82.87
2024-01-24T19:34:33.816Z,83.21
2024-01-24T19:37:01.312Z,82.88
2024-01-24T19:39:28.883Z,83.53
2024-01-24T19:41:56.711Z,83.75
2024-01-24T19:44:24.768Z,83.53
2024-01-24T19:46:55.808Z,84.25
2024-01-24T19:49:23.404Z,84.30
2024-01-24T19:51:53.221Z,84.32
2024-01-24T19:54:21.514Z,84.54
2024-01-24T19:56:49.035Z,84.42
2024-01-24T19:59:17.420Z,84.68
2024-01-24T20:01:44.954Z,85.15
2024-01-24T20:04:12.563Z,85.17
2024-01-24T20:06:40.183Z,85.01
2024-01-24T20:09:08.274Z,85.72
2024-01-24T20:11:35.755Z,85.43
2024-01-24T20:14:03.797Z,85.83
2024-01-24T20:16:31.391Z,85.88
2024-01-24T20:18:58.974Z,86.19
2024-01-24T20:21:26.567Z,86.39
2024-01-24T20:23:54.105Z,86.93
2024-01-24T20:26:23.393Z,86.63
2024-01-24T20:28:50.891Z,86.65
2024-01-24T20:31:18.832Z,86.76
2024-01-24T20:33:46.420Z,86.92
2024-01-24T20:36:14.160Z,87.39
2024-01-24T20:38:41.998Z,87.33
2024-01-24T20:41:11.136Z,87.54
2024-01-24T20:43:40.206Z,87.74
2024-01-24T20:46:10.055Z,87.63
2024-01-24T20:48:37.986Z,87.41
2024-01-24T20:51:05.803Z,87.67
2024-01-24T20:53:33.637Z,88.21
2024-01-24T20:56:01.114Z,88.32
2024-01-24T20:58:28.692Z,88.37
2024-01-24T21:00:56.504Z,88.29
2024-01-24T21:03:24.317Z,88.54
2024-01-24T21:05:53.001Z,88.55
2024-01-24T21:08:21.337Z,88.34
2024-01-24T21:10:55.368Z,89.03
2024-01-24T21:13:29.442Z,89.19
2024-01-24T21:15:57.246Z,89.29
2024-01-24T21:18:27.320Z,89.48
2024-01-24T21:20:55.194Z,89.53
2024-01-24T21:23:22.804Z,89.63
2024-01-24T21:25:50.405Z,89.85
2024-01-24T21:28:17.911Z,89.73
2024-01-24T21:30:45.577Z,89.91
2024-01-24T21:33:13.262Z,89.89
2024-01-24T21:35:41.889Z,90.52
2024-01-24T21:38:10.581Z,90.70
2024-01-24T21:40:38.115Z,90.84
2024-01-24T21:43:05.610Z,90.63
2024-01-24T21:45:33.123Z,90.86
2024-01-24T21:48:00.891Z,90.86
2024-01-24T21:50:29.114Z,91.28
2024-01-24T21:52:56.742Z,91.30
2024-01-24T21:55:24.204Z,91.81
2024-01-24T21:57:53.439Z,91.30
2024-01-24T22:00:21.077Z,91.54
2024-01-24T22:02:48.945Z,91.57
2024-01-24T22:05:18.999Z,91.41
2024-01-24T22:07:51.126Z,91.41
2024-01-24T22:10:19.099Z,91.63
2024-01-24T22:12:48.358Z,91.68
2024-01-24T22:15:16.006Z,91.78
2024-01-24T22:17:43.750Z,91.58
2024-01-24T22:20:11.813Z,91.45
2024-01-24T22:22:39.430Z,91.42
2024-01-24T22:25:08.926Z,91.32
2024-01-24T22:27:36.588Z,91.66
2024-01-24T22:30:05.958Z,91.13
2024-01-24T22:32:34.501Z,91.15
2024-01-24T22:35:02.780Z,90.99
2024-01-24T22:37:30.615Z,91.06
2024-01-24T22:39:58.282Z,90.96
2024-01-24T22:42:25.992Z,90.67
2024-01-24T22:44:53.667Z,90.92
2024-01-24T22:47:21.417Z,90.61
2024-01-24T22:49:49.251Z,91.17
2024-01-24T22:52:17.472Z,90.97
2024-01-24T22:54:45.385Z,91.01
2024-01-24T22:57:13.149Z,90.81
2024-01-24T22:59:40.666Z,91.03
2024-01-24T23:02:08.250Z,91.01
2024-01-24T23:04:35.907Z,91.01
2024-01-24T23:07:03.568Z,91.17
2024-01-24T23:09:31.179Z,91.55
2024-01-24T23:11:58.688Z,91.45
2024-01-24T23:14:26.304Z,91.71
2024-01-24T23:16:53.808Z,91.67
2024-01-24T23:19:21.395Z,91.65
2024-01-24T23:21:49.101Z,91.74
2024-01-24T23:24:17.400Z,91.70
2024-01-24T23:26:45.156Z,91.75
2024-01-24T23:29:15.169Z,91.81
2024-01-24T23:31:42.678Z,92.04
2024-01-24T23:34:11.698Z,91.86
2024-01-24T23:36:39.813Z,91.82
2024-01-24T23:39:08.056Z,91.94
2024-01-24T23:41:40.105Z,91.89
2024-01-24T23:44:07.940Z,91.93
2024-01-24T23:46:35.536Z,91.98
2024-01-24T23:49:04.385Z,91.90
2024-01-24T23:51:35.928Z,92.01
2024-01-24T23:54:04.418Z,91.69
2024-01-24T23:56:32.100Z,91.83
2024-01-24T23:58:59.604Z,91.93
